Viroqua, WI

12:11 PM CDT on July 26, 2017 (GMT -0500)
Viroqua

Weather History for KY51 - September, 2013

Change the Weather History Date:

Friday, September 13, 2013

  Actual Average (KCMY) Record (KCMY)
Temperature  
Mean Temperature 54 °F -  
Max Temperature 65 °F 72 °F 88 °F (1952)
Min Temperature 42 °F 49 °F 30 °F (1963)
Degree Days  
Heating Degree Days 12    
Growing Degree Days 4 (Base 50)    
Moisture  
Dew Point 41 °F    
Average Humidity 63    
Maximum Humidity 99    
Minimum Humidity 35    
Precipitation  
Precipitation 0.00 in - - ()
Sea Level Pressure  
Sea Level Pressure 30.21 in    
Wind  
Wind Speed 5 mph (NE)    
Max Wind Speed 9 mph    
Max Gust Speed -    
Visibility 10 miles    
Events      
Averages and records for this station are not official NWS values.
T = Trace of Precipitation, MM = Missing Value Source: NWS Daily Summary

Daily Weather History Graph

Daily Weather History Graph

Search for Another Location

Airport or City:

Trip Planner

Search our weather history database for the weather conditions in past years. The results will help you decide how hot, cold, wet, or windy it might be!

Date:

Astronomy

Sep. 13, 2013 Rise Set
Actual Time 6:41 AM CDT 7:16 PM CDT
Civil Twilight 6:12 AM CDT 7:45 PM CDT
Nautical Twilight 5:37 AM CDT 8:19 PM CDT
Astronomical Twilight 5:02 AM CDT 8:55 PM CDT
Moon 3:14 PM CDT (9/13) 12:02 AM CDT (9/13)
Length of Visible Light 13h 33m
Length of Day
12h 35m
First Quarter, 61% of the Moon is Illuminated
Sep 13
First Quarter
Sep 19
Full
Sep 26
Last Quarter
Oct 4
New
Oct 11
First Quarter

Hourly Weather History & Observations

Time (CDT) Temp. Windchill Dew Point Humidity Pressure Visibility Wind Dir Wind Speed Gust Speed Precip Events Conditions
12:15 AM 51.4 °F - 44.2 °F 76% 30.20 in 10.0 mi NNE 8.1 mph - N/A   Clear
12:35 AM 52.5 °F - 44.1 °F 73% 30.20 in 10.0 mi NNE 9.2 mph - N/A   Clear
12:55 AM 52.0 °F - 43.7 °F 73% 30.21 in 10.0 mi NE 9.2 mph - N/A   Clear
1:15 AM 50.5 °F - 43.7 °F 77% 30.21 in 10.0 mi NNE 8.1 mph - N/A   Clear
1:35 AM 49.1 °F - 43.7 °F 82% 30.21 in 10.0 mi NNE 5.8 mph - N/A   Clear
1:55 AM 48.6 °F - 43.0 °F 81% 30.21 in 10.0 mi NNE 4.6 mph - N/A   Clear
2:15 AM 47.8 °F - 42.8 °F 83% 30.21 in 10.0 mi Calm Calm - N/A   Clear
2:35 AM 47.3 °F - 42.3 °F 83% 30.22 in 10.0 mi NNE 5.8 mph - N/A   Clear
2:55 AM 47.1 °F - 42.1 °F 83% 30.22 in 10.0 mi Calm Calm - N/A   Clear
3:15 AM 46.6 °F - 41.9 °F 84% 30.21 in 10.0 mi NE 5.8 mph - N/A   Clear
3:35 AM 45.9 °F 42.9 °F 41.9 °F 86% 30.21 in 10.0 mi NE 5.8 mph - N/A   Clear
3:55 AM 45.5 °F 44.2 °F 41.7 °F 87% 30.22 in 10.0 mi NNE 3.5 mph - N/A   Clear
4:15 AM 44.6 °F - 41.4 °F 88% 30.22 in 10.0 mi Calm Calm - N/A   Clear
4:35 AM 45.7 °F 44.4 °F 41.9 °F 87% 30.22 in 10.0 mi North 3.5 mph - N/A   Clear
4:55 AM 45.5 °F 44.2 °F 41.5 °F 86% 30.22 in 10.0 mi NNE 3.5 mph - N/A   Clear
5:15 AM 45.1 °F 43.7 °F 41.5 °F 87% 30.22 in 10.0 mi North 3.5 mph - N/A   Clear
5:35 AM 44.1 °F 41.5 °F 41.0 °F 89% 30.22 in 10.0 mi North 4.6 mph - N/A   Clear
5:55 AM 43.3 °F 41.7 °F 41.0 °F 91% 30.23 in 10.0 mi NNE 3.5 mph - N/A   Clear
6:15 AM 43.3 °F 40.7 °F 42.8 °F 98% 30.23 in 10.0 mi NNE 4.6 mph - N/A   Clear
6:35 AM 42.4 °F 40.7 °F 41.9 °F 98% 30.24 in 10.0 mi NNE 3.5 mph - N/A   Clear
6:55 AM 43.0 °F - 42.6 °F 99% 30.24 in 10.0 mi Calm Calm - N/A   Clear
7:15 AM 43.5 °F - 42.8 °F 97% 30.24 in 10.0 mi Calm Calm - N/A   Clear
7:35 AM 44.6 °F - 43.7 °F 97% 30.24 in 10.0 mi Calm Calm - N/A   Clear
7:55 AM 46.8 °F - 45.9 °F 97% 30.25 in 10.0 mi NNE 3.5 mph - N/A   Clear
8:15 AM 49.3 °F - 46.4 °F 90% 30.25 in 10.0 mi NNE 4.6 mph - N/A   Clear
8:35 AM 50.2 °F - 45.5 °F 84% 30.25 in 10.0 mi North 4.6 mph - N/A   Clear
8:55 AM 51.6 °F - 45.7 °F 80% 30.25 in 10.0 mi Calm Calm - N/A   Clear
9:15 AM 52.7 °F - 45.9 °F 78% 30.26 in 10.0 mi NNE 4.6 mph - N/A   Clear
9:35 AM 54.0 °F - 45.9 °F 74% 30.26 in 10.0 mi North 5.8 mph - N/A   Clear
9:55 AM 53.2 °F - 44.1 °F 71% 30.27 in 10.0 mi NNE 4.6 mph - N/A   Scattered Clouds
10:15 AM 55.6 °F - 43.5 °F 64% 30.27 in 10.0 mi NNE 8.1 mph - N/A   Scattered Clouds
10:35 AM 56.1 °F - 43.2 °F 62% 30.27 in 10.0 mi NNE 4.6 mph - N/A   Clear
10:55 AM 57.7 °F - 43.3 °F 59% 30.27 in 10.0 mi North 5.8 mph - N/A   Clear
11:15 AM 57.9 °F - 43.0 °F 58% 30.27 in 10.0 mi NNW 3.5 mph - N/A   Scattered Clouds
11:35 AM 59.2 °F - 43.0 °F 55% 30.27 in 10.0 mi North 5.8 mph - N/A   Scattered Clouds
11:55 AM 60.1 °F - 42.6 °F 53% 30.26 in 10.0 mi North 6.9 mph - N/A   Clear
12:15 PM 60.4 °F - 42.6 °F 52% 30.25 in 10.0 mi North 6.9 mph - N/A   Clear
12:35 PM 61.0 °F - 40.3 °F 46% 30.24 in 10.0 mi North 5.8 mph - N/A   Clear
12:55 PM 62.2 °F - 39.0 °F 42% 30.24 in 10.0 mi North 5.8 mph - N/A   Clear
1:15 PM 62.1 °F - 37.9 °F 41% 30.23 in 10.0 mi North 8.1 mph - N/A   Clear
1:35 PM 61.9 °F - 36.5 °F 39% 30.22 in 10.0 mi Calm Calm - N/A   Clear
1:55 PM 63.9 °F - 39.4 °F 41% 30.21 in 10.0 mi North 5.8 mph - N/A   Clear
2:15 PM 64.0 °F - 38.8 °F 39% 30.21 in 10.0 mi North 5.8 mph - N/A   Clear
2:35 PM 64.2 °F - 39.2 °F 40% 30.20 in 10.0 mi North 9.2 mph - N/A   Clear
2:55 PM 64.6 °F - 37.4 °F 37% 30.20 in 10.0 mi WNW 3.5 mph - N/A   Clear
3:15 PM 65.7 °F - 37.2 °F 35% 30.19 in 10.0 mi Calm Calm - N/A   Clear
3:35 PM 64.9 °F - 36.7 °F 35% 30.19 in 10.0 mi ENE 3.5 mph - N/A   Clear
3:55 PM 65.3 °F - 38.3 °F 37% 30.18 in 10.0 mi Calm Calm - N/A   Clear
4:15 PM 65.3 °F - 37.9 °F 36% 30.18 in 10.0 mi NE 3.5 mph - N/A   Clear
4:35 PM 65.1 °F - 38.5 °F 37% 30.17 in 10.0 mi NW 3.5 mph - N/A   Clear
4:55 PM 65.3 °F - 38.8 °F 38% 30.17 in 10.0 mi North 4.6 mph - N/A   Clear
5:15 PM 64.8 °F - 37.9 °F 37% 30.17 in 10.0 mi NNW 3.5 mph - N/A   Clear
5:35 PM 64.6 °F - 38.3 °F 38% 30.17 in 10.0 mi NE 3.5 mph - N/A   Clear
5:55 PM 64.4 °F - 40.1 °F 41% 30.17 in 10.0 mi Calm Calm - N/A   Clear
6:15 PM 63.3 °F - 39.0 °F 41% 30.16 in 10.0 mi Calm Calm - N/A   Clear
6:35 PM 62.2 °F - 44.1 °F 51% 30.16 in 10.0 mi East 4.6 mph - N/A   Clear
6:55 PM 59.9 °F - 41.9 °F 51% 30.16 in 10.0 mi Calm Calm - N/A   Clear
7:15 PM 57.9 °F - 40.8 °F 53% 30.16 in 10.0 mi East 4.6 mph - N/A   Clear
7:35 PM 57.0 °F - 38.3 °F 50% 30.16 in 10.0 mi ESE 4.6 mph - N/A   Clear
7:55 PM 57.6 °F - 37.0 °F 46% 30.16 in 10.0 mi ESE 3.5 mph - N/A   Clear
8:15 PM 56.8 °F - 36.5 °F 47% 30.16 in 10.0 mi ESE 3.5 mph - N/A   Clear
8:35 PM 57.9 °F - 36.5 °F 45% 30.16 in 10.0 mi Calm Calm - N/A   Clear
8:55 PM 57.4 °F - 36.7 °F 46% 30.16 in 10.0 mi SE 4.6 mph - N/A   Clear
9:15 PM 51.8 °F - 39.7 °F 63% 30.16 in 10.0 mi ESE 4.6 mph - N/A   Clear
9:35 PM 55.4 °F - 36.0 °F 48% 30.16 in 10.0 mi SE 4.6 mph - N/A   Clear
9:55 PM 54.7 °F - 36.5 °F 50% 30.15 in 10.0 mi SE 4.6 mph - N/A   Clear
10:15 PM 54.5 °F - 37.0 °F 52% 30.15 in 10.0 mi SE 4.6 mph - N/A   Clear
10:35 PM 52.7 °F - 37.2 °F 56% 30.15 in 10.0 mi SE 4.6 mph - N/A   Clear
10:55 PM 53.1 °F - 37.0 °F 55% 30.15 in 10.0 mi SE 4.6 mph - N/A   Clear
11:15 PM 52.9 °F - 37.2 °F 55% 30.14 in 10.0 mi SE 5.8 mph - N/A   Clear
11:35 PM 52.5 °F - 37.4 °F 56% 30.14 in 10.0 mi SSE 4.6 mph - N/A   Clear
11:55 PM 51.3 °F - 37.6 °F 60% 30.14 in 10.0 mi SSE 5.8 mph - N/A   Clear